Terminal Aerodrome Forecast
Issued by NWS

Home | Current Version | Previous Version | Text Only | Print | Product List | Glossary On
Versions: 1 2 3 4 5 6 7 8 9 10 11 12 13 14 15 16 17 18 19 20 21 22 23 24 25 26 27 28 29 30 31 32 33 34 35 36 37 38 39 40 41 42 43 44 45
000
FTAK31 PANC 282325
TAFADU
TAF
PADU 282325Z 2900/2924 VRB04KT P6SM VCFG BKN005
      TEMPO 2900/2904 2SM BR BKN003
     FM290400 VRB03KT 3SM BR OVC004
     FM290700 VRB03KT 3/4SM BR OVC002
     FM292100 06007KT P6SM FEW015 BKN035=

USA.gov is the U.S. government's official web portal to all federal, state and local government web resources and services.